Time;durP1;ratioP1;P1;durP2;ratioP2;P2;SDS_P1;SDS_P2;PMS_P1;PMS_P2;Temp;Humidity;BMP_temperature;BMP_pressure;BME280_temperature;BME280_humidity;BME280_pressure;Samples;Min_cycle;Max_cycle;Signal;HPM_P1;HPM_P2
2022/12/19 00:01:18;;;;;;;35.33;16.63;;;-1.30;1.00;;;;;;4994626;28;20521;-54
2022/12/19 00:03:45;;;;;;;37.10;19.33;;;-1.30;1.00;;;;;;4994721;28;20439;-55
2022/12/19 00:06:12;;;;;;;31.00;16.63;;;-1.30;1.00;;;;;;4995786;28;20439;-54
2022/12/19 00:08:41;;;;;;;32.07;18.27;;;-1.30;1.00;;;;;;4995412;28;20965;-54
2022/12/19 00:11:08;;;;;;;32.17;18.20;;;-1.30;1.00;;;;;;4995436;28;20475;-58
2022/12/19 00:13:34;;;;;;;28.17;15.67;;;-1.20;1.00;;;;;;4992107;28;20422;-55
2022/12/19 00:16:04;;;;;;;37.90;18.47;;;-1.20;1.00;;;;;;4995441;28;20838;-54
2022/12/19 00:18:30;;;;;;;28.93;16.37;;;-1.30;1.00;;;;;;4995561;28;20431;-55
2022/12/19 00:21:05;;;;;;;21.07;12.00;;;-1.20;1.00;;;;;;4995565;28;20768;-55
2022/12/19 00:23:33;;;;;;;27.47;15.60;;;-1.30;1.00;;;;;;4995342;28;20439;-55
2022/12/19 00:26:16;;;;;;;32.90;18.20;;;-1.30;1.00;;;;;;4995200;28;20434;-54
2022/12/19 00:28:45;;;;;;;13.13;9.90;;;-1.30;1.00;;;;;;4977857;28;20567;-54
2022/12/19 00:31:12;;;;;;;27.70;16.13;;;-1.40;1.00;;;;;;4995237;28;20435;-55
2022/12/19 00:33:38;;;;;;;24.73;13.97;;;-1.30;1.00;;;;;;4995190;28;20442;-52
2022/12/19 00:36:06;;;;;;;27.80;15.20;;;-1.50;1.00;;;;;;4994742;28;20468;-55
2022/12/19 00:38:32;;;;;;;33.27;16.23;;;-1.50;1.00;;;;;;4995092;28;20195;-55
2022/12/19 00:41:09;;;;;;;29.07;16.07;;;-1.50;1.00;;;;;;4994745;28;20810;-54
2022/12/19 00:43:34;;;;;;;25.07;14.73;;;-1.50;1.00;;;;;;4995083;28;20497;-53
2022/12/19 00:46:04;;;;;;;26.00;15.93;;;-1.40;1.00;;;;;;4994984;28;20953;-54
2022/12/19 00:48:31;;;;;;;26.57;14.90;;;-1.40;1.00;;;;;;4994389;28;20244;-55
2022/12/19 00:51:15;;;;;;;22.13;14.40;;;-1.40;1.00;;;;;;4995005;28;20947;-53
2022/12/19 00:53:41;;;;;;;30.10;14.57;;;-1.50;1.00;;;;;;4994785;28;20993;-53
2022/12/19 00:56:11;;;;;;;30.60;16.20;;;-1.50;1.00;;;;;;4994597;28;20467;-54
2022/12/19 00:58:38;;;;;;;32.07;15.50;;;-1.50;1.00;;;;;;4994735;28;20414;-55
2022/12/19 01:01:09;;;;;;;20.83;11.10;;;-1.50;1.00;;;;;;4994675;28;20924;-55
2022/12/19 01:03:35;;;;;;;36.93;15.40;;;-1.50;1.00;;;;;;4994629;28;20475;-56
2022/12/19 01:06:00;;;;;;;30.13;16.47;;;-1.50;1.00;;;;;;4994760;28;20481;-54
2022/12/19 01:08:26;;;;;;;24.67;15.00;;;-1.60;1.00;;;;;;4994730;28;20589;-54
2022/12/19 01:10:52;;;;;;;27.87;16.13;;;-1.60;1.00;;;;;;4994310;28;20585;-54
2022/12/19 01:13:20;;;;;;;21.13;12.50;;;-1.60;1.00;;;;;;4994482;28;20275;-54
2022/12/19 01:15:46;;;;;;;23.50;13.57;;;-1.60;1.00;;;;;;4994321;28;20470;-54
2022/12/19 01:18:12;;;;;;;30.23;15.30;;;-1.60;1.00;;;;;;4993972;28;20913;-53
2022/12/19 01:20:39;;;;;;;21.70;13.67;;;-1.60;1.00;;;;;;4994536;28;20270;-55
2022/12/19 01:23:06;;;;;;;27.07;16.17;;;-1.60;1.00;;;;;;4994376;28;20901;-54
2022/12/19 01:25:33;;;;;;;31.93;15.23;;;-1.60;1.00;;;;;;4979092;28;20475;-55
2022/12/19 01:27:59;;;;;;;33.27;17.67;;;-1.60;1.00;;;;;;4974680;28;21004;-54
2022/12/19 01:30:25;;;;;;;27.43;15.43;;;-1.60;1.00;;;;;;4974564;28;20444;-56
2022/12/19 01:32:51;;;;;;;23.73;13.93;;;-1.60;1.00;;;;;;4982646;28;20205;-56
2022/12/19 01:35:17;;;;;;;21.57;11.87;;;-1.60;1.00;;;;;;4989274;28;20569;-56
2022/12/19 01:37:42;;;;;;;25.10;12.67;;;-1.50;1.00;;;;;;4994144;28;20192;-53
2022/12/19 01:40:11;;;;;;;29.20;15.77;;;-1.50;1.00;;;;;;4994051;28;20196;-55
2022/12/19 01:42:37;;;;;;;26.00;14.17;;;-1.60;1.00;;;;;;4993914;28;20191;-54
2022/12/19 01:45:08;;;;;;;22.73;11.50;;;-1.70;1.00;;;;;;4993861;28;20927;-55
2022/12/19 01:48:14;;;;;;;31.60;16.20;;;-1.70;1.00;;;;;;4992087;28;20546;-54
2022/12/19 01:51:15;;;;;;;23.00;12.37;;;-1.70;1.00;;;;;;4990914;28;20451;-55
2022/12/19 01:53:45;;;;;;;25.97;13.70;;;-1.70;1.00;;;;;;4974354;28;20439;-55
2022/12/19 01:56:12;;;;;;;26.77;14.50;;;-1.70;1.00;;;;;;4974337;28;20468;-54
2022/12/19 01:58:42;;;;;;;24.07;13.00;;;-1.70;1.00;;;;;;4974383;28;20431;-57
2022/12/19 02:01:08;;;;;;;25.17;13.50;;;-1.80;1.00;;;;;;4974176;28;20443;-55
2022/12/19 02:03:35;;;;;;;23.27;13.93;;;-1.70;1.00;;;;;;4974356;28;20953;-55
2022/12/19 02:06:03;;;;;;;26.00;12.87;;;-1.70;1.00;;;;;;4974392;28;20447;-55
2022/12/19 02:08:30;;;;;;;27.20;13.07;;;-1.70;1.00;;;;;;4974221;28;20828;-54
2022/12/19 02:10:56;;;;;;;23.50;12.77;;;-1.70;1.00;;;;;;4974291;28;20483;-55
2022/12/19 02:13:23;;;;;;;23.70;12.77;;;-1.70;1.00;;;;;;4985984;28;20535;-54
2022/12/19 02:16:04;;;;;;;25.20;13.43;;;-1.70;1.00;;;;;;4993653;28;20229;-55
2022/12/19 02:18:50;;;;;;;23.13;13.87;;;-1.70;1.00;;;;;;4993642;28;21018;-55
2022/12/19 02:21:24;;;;;;;20.97;11.83;;;-1.60;1.00;;;;;;4993413;28;20467;-55
2022/12/19 02:23:58;;;;;;;21.20;12.60;;;-1.60;1.00;;;;;;4993596;28;20423;-55
2022/12/19 02:26:42;;;;;;;25.20;12.10;;;-1.70;1.00;;;;;;4999979;28;20404;-54
2022/12/19 02:29:46;;;;;;;24.13;13.27;;;-1.70;1.00;;;;;;5017121;28;20500;-55
2022/12/19 02:32:53;;;;;;;20.83;12.17;;;-1.70;1.00;;;;;;5017160;28;20790;-54
2022/12/19 02:35:18;;;;;;;22.47;11.07;;;-1.60;1.00;;;;;;5017460;28;20939;-55
2022/12/19 02:37:55;;;;;;;22.83;11.90;;;-1.60;1.00;;;;;;5016779;28;20458;-54
2022/12/19 02:40:33;;;;;;;19.87;10.53;;;-1.60;1.00;;;;;;5007132;28;20209;-53
2022/12/19 02:43:01;;;;;;;19.67;9.37;;;-1.60;1.00;;;;;;4996889;28;20434;-56
2022/12/19 02:45:33;;;;;;;14.97;8.50;;;-1.60;1.00;;;;;;4977816;28;20435;-56
2022/12/19 02:48:00;;;;;;;19.97;10.50;;;-1.60;1.00;;;;;;4986630;28;20928;-54
2022/12/19 02:50:35;;;;;;;20.67;11.73;;;-1.60;1.00;;;;;;4986171;28;20960;-56
2022/12/19 02:53:01;;;;;;;21.10;9.67;;;-1.60;1.00;;;;;;4991166;28;20469;-56
2022/12/19 02:55:26;;;;;;;19.57;9.67;;;-1.60;1.00;;;;;;4996897;28;20501;-55
2022/12/19 02:58:25;;;;;;;23.93;12.93;;;-1.50;1.00;;;;;;4997157;28;20203;-55
2022/12/19 03:01:00;;;;;;;18.73;10.57;;;-1.50;1.00;;;;;;4997047;28;20431;-54
2022/12/19 03:03:29;;;;;;;23.67;11.23;;;-1.50;1.00;;;;;;4996783;28;20466;-54
2022/12/19 03:06:19;;;;;;;18.23;10.70;;;-1.50;1.00;;;;;;4996795;28;20515;-55
2022/12/19 03:08:58;;;;;;;20.53;11.37;;;-1.40;1.00;;;;;;4978595;28;20497;-52
2022/12/19 03:11:33;;;;;;;21.50;12.00;;;-1.40;1.00;;;;;;4977589;28;20427;-55
2022/12/19 03:14:04;;;;;;;21.57;12.57;;;-1.40;1.00;;;;;;4996206;28;20804;-55
2022/12/19 03:16:32;;;;;;;8.47;4.63;;;-1.40;1.00;;;;;;4996657;28;20463;-54
2022/12/19 03:18:58;;;;;;;25.03;14.13;;;-1.40;1.00;;;;;;4996842;28;20428;-54
2022/12/19 03:21:42;;;;;;;23.80;10.83;;;-1.40;1.00;;;;;;4996814;28;20463;-54
2022/12/19 03:24:10;;;;;;;19.97;11.67;;;-1.40;1.00;;;;;;4996504;28;20198;-54
2022/12/19 03:27:16;;;;;;;20.47;13.07;;;-1.30;1.00;;;;;;4987728;28;20498;-55
2022/12/19 03:29:52;;;;;;;22.03;12.00;;;-1.30;1.00;;;;;;4969633;28;20443;-54
2022/12/19 03:32:19;;;;;;;23.13;12.67;;;-1.20;1.00;;;;;;4976988;28;20571;-54
2022/12/19 03:35:31;;;;;;;21.90;11.10;;;-1.30;1.00;;;;;;4995833;28;20475;-54
2022/12/19 03:38:00;;;;;;;25.70;12.57;;;-1.30;1.00;;;;;;4972882;28;20434;-54
2022/12/19 03:40:28;;;;;;;26.83;12.47;;;-1.30;1.00;;;;;;4981299;28;20435;-53
2022/12/19 03:43:10;;;;;;;30.80;14.00;;;-1.30;1.00;;;;;;4996275;28;20445;-53
2022/12/19 03:45:38;;;;;;;20.90;12.60;;;-1.20;1.00;;;;;;4996014;28;21012;-52
2022/12/19 03:48:14;;;;;;;30.00;13.77;;;-1.20;1.00;;;;;;4995890;28;20471;-54
2022/12/19 03:51:28;;;;;;;23.77;11.30;;;-1.10;1.00;;;;;;4995933;28;20443;-55
2022/12/19 03:54:11;;;;;;;23.30;14.07;;;-1.10;1.00;;;;;;4990642;28;20443;-54
2022/12/19 03:56:48;;;;;;;26.23;13.07;;;-1.00;1.00;;;;;;4995665;28;20541;-54
2022/12/19 03:59:32;;;;;;;25.73;12.80;;;-1.00;1.00;;;;;;4995962;28;20431;-56
2022/12/19 04:02:00;;;;;;;23.73;12.57;;;-1.00;1.00;;;;;;4995915;28;20432;-56
2022/12/19 04:04:26;;;;;;;26.10;14.40;;;-1.10;1.00;;;;;;4994170;28;20497;-54
2022/12/19 04:06:53;;;;;;;24.50;11.87;;;-0.90;1.00;;;;;;4976745;28;20898;-55
2022/12/19 04:09:21;;;;;;;22.00;13.60;;;-0.90;1.00;;;;;;4995680;28;20445;-55
2022/12/19 04:11:53;;;;;;;24.90;13.47;;;-0.90;1.00;;;;;;4995702;28;20444;-54
2022/12/19 04:14:26;;;;;;;26.70;13.00;;;-0.90;1.00;;;;;;4995810;28;20445;-54
2022/12/19 04:17:07;;;;;;;26.67;12.57;;;0.60;1.00;;;;;;4977928;28;20439;-54
2022/12/19 04:19:43;;;;;;;28.67;13.77;;;-0.90;1.00;;;;;;4995525;28;20423;-54
2022/12/19 04:22:36;;;;;;;28.73;13.03;;;-0.80;1.00;;;;;;4995602;28;20809;-54
2022/12/19 04:25:08;;;;;;;17.03;9.10;;;-0.80;1.00;;;;;;4995441;28;20440;-55
2022/12/19 04:27:38;;;;;;;24.37;13.03;;;-0.80;1.00;;;;;;4995143;28;20494;-53
2022/12/19 04:30:07;;;;;;;26.70;13.30;;;-0.70;1.00;;;;;;4995406;28;20519;-53
2022/12/19 04:32:35;;;;;;;26.60;14.77;;;-0.70;1.00;;;;;;4987544;28;20435;-54
2022/12/19 04:35:01;;;;;;;20.17;10.83;;;-0.80;1.00;;;;;;4975711;28;20503;-54
2022/12/19 04:37:28;;;;;;;36.57;15.70;;;-0.60;1.00;;;;;;4975606;28;20957;-54
2022/12/19 04:39:53;;;;;;;35.53;16.63;;;-0.70;1.00;;;;;;4984781;28;21035;-55
2022/12/19 04:42:19;;;;;;;27.37;15.80;;;-0.70;1.00;;;;;;4989758;28;20439;-53
2022/12/19 04:44:45;;;;;;;24.03;13.67;;;-0.60;1.00;;;;;;4975581;28;20551;-54
2022/12/19 04:47:10;;;;;;;28.47;14.90;;;-0.60;1.00;;;;;;4975458;28;20226;-53
2022/12/19 04:49:36;;;;;;;28.83;15.47;;;-0.60;1.00;;;;;;4974918;28;20316;-54
2022/12/19 04:52:02;;;;;;;32.20;16.10;;;-0.70;1.00;;;;;;4978506;28;20203;-54
2022/12/19 04:54:27;;;;;;;27.63;14.27;;;-0.70;1.00;;;;;;4994854;28;20188;-54
2022/12/19 04:56:53;;;;;;;26.43;14.83;;;-0.70;1.00;;;;;;4977442;28;20188;-55
2022/12/19 04:59:19;;;;;;;28.73;15.40;;;-0.80;1.00;;;;;;4994971;28;20212;-54
2022/12/19 05:01:44;;;;;;;29.80;14.07;;;-0.70;1.00;;;;;;4994597;28;20648;-55
2022/12/19 05:04:10;;;;;;;34.00;16.83;;;-0.70;1.00;;;;;;4994643;28;20421;-55
2022/12/19 05:06:36;;;;;;;32.20;17.03;;;-0.30;1.00;;;;;;5000692;28;20222;-54
2022/12/19 05:09:02;;;;;;;28.30;14.43;;;-0.70;1.00;;;;;;4996844;28;20220;-56
2022/12/19 05:11:27;;;;;;;25.53;14.70;;;-0.70;1.00;;;;;;4979133;28;20455;-56
2022/12/19 05:13:53;;;;;;;31.37;14.60;;;-0.50;99.90;;;;;;4992959;28;20288;-56
2022/12/19 05:16:19;;;;;;;28.20;15.00;;;-0.30;99.90;;;;;;5002874;28;20608;-55
2022/12/19 05:18:44;;;;;;;32.13;16.30;;;-0.20;99.90;;;;;;4992842;28;20272;-55
2022/12/19 05:21:10;;;;;;;22.83;13.33;;;-0.20;99.90;;;;;;4993245;28;20182;-53
2022/12/19 05:23:36;;;;;;;30.63;15.37;;;-0.20;51.60;;;;;;5001659;28;20271;-55
2022/12/19 05:26:03;;;;;;;33.27;13.73;;;-0.30;99.90;;;;;;4995478;28;20198;-54
2022/12/19 05:28:30;;;;;;;29.70;14.77;;;-0.40;99.90;;;;;;4996321;28;20453;-54
2022/12/19 05:31:09;;;;;;;25.50;14.77;;;-0.40;99.90;;;;;;5002663;28;20447;-55
2022/12/19 05:33:36;;;;;;;33.83;15.43;;;-0.50;99.90;;;;;;4996469;28;20454;-55
2022/12/19 05:36:02;;;;;;;25.13;12.43;;;-0.50;99.90;;;;;;4996015;28;20486;-55
2022/12/19 05:38:28;;;;;;;28.90;16.60;;;-0.50;99.90;;;;;;4980322;28;20945;-55
2022/12/19 05:40:54;;;;;;;27.13;15.43;;;-0.60;23.10;;;;;;4999322;28;20446;-55
2022/12/19 05:43:20;;;;;;;20.87;11.67;;;-0.70;99.90;;;;;;5001773;28;20192;-54
2022/12/19 05:45:46;;;;;;;29.50;15.67;;;-0.60;99.90;;;;;;5002175;28;20979;-56
2022/12/19 05:48:12;;;;;;;26.70;13.83;;;-0.70;1.00;;;;;;4997395;28;20909;-54
2022/12/19 05:50:38;;;;;;;31.70;17.93;;;-0.70;99.90;;;;;;5001590;28;20908;-54
2022/12/19 05:53:04;;;;;;;33.83;16.67;;;-0.70;28.00;;;;;;4997856;28;20458;-55
2022/12/19 05:55:29;;;;;;;35.67;18.20;;;-0.70;99.90;;;;;;4999137;28;20480;-56
2022/12/19 05:57:55;;;;;;;34.63;15.50;;;-0.60;99.90;;;;;;5003740;28;20195;-54
2022/12/19 06:00:21;;;;;;;31.57;16.13;;;-0.60;99.90;;;;;;4997362;28;20219;-54
2022/12/19 06:02:46;;;;;;;32.30;16.73;;;-0.60;29.20;;;;;;4995866;28;20195;-54
2022/12/19 06:05:12;;;;;;;31.00;15.47;;;-0.50;22.40;;;;;;4998914;28;20251;-54
2022/12/19 06:07:38;;;;;;;35.40;16.43;;;-0.40;99.90;;;;;;5003953;28;20865;-54
2022/12/19 06:10:04;;;;;;;30.70;16.10;;;-0.40;99.90;;;;;;4997832;28;20200;-55
2022/12/19 06:12:30;;;;;;;30.90;16.03;;;-0.30;99.90;;;;;;5009852;28;20194;-55
2022/12/19 06:14:56;;;;;;;34.47;17.70;;;-0.20;99.90;;;;;;4996780;28;20466;-55
2022/12/19 06:17:21;;;;;;;32.03;16.10;;;-0.30;99.90;;;;;;4992609;28;20200;-55
2022/12/19 06:19:47;;;;;;;30.97;17.33;;;-0.30;68.80;;;;;;4998177;28;20191;-55
2022/12/19 06:22:13;;;;;;;34.80;17.07;;;-0.30;58.60;;;;;;4983529;28;20442;-55
2022/12/19 06:24:38;;;;;;;31.77;15.80;;;-0.20;99.90;;;;;;5001877;28;20189;-54
2022/12/19 06:27:04;;;;;;;33.50;18.07;;;-0.20;99.90;;;;;;5000068;28;20210;-56
2022/12/19 06:29:30;;;;;;;31.90;17.17;;;-0.10;99.90;;;;;;4997694;28;20188;-55
2022/12/19 06:31:55;;;;;;;32.60;17.13;;;0.00;99.90;;;;;;4998263;28;20220;-56
2022/12/19 06:34:21;;;;;;;34.10;18.47;;;0.00;99.90;;;;;;4994236;28;20188;-55
2022/12/19 06:36:47;;;;;;;30.03;16.60;;;0.00;99.90;;;;;;4985035;28;20310;-55
2022/12/19 06:39:14;;;;;;;39.43;17.57;;;0.00;99.90;;;;;;5006237;28;20799;-54
2022/12/19 06:44:24;;;;;;;41.37;19.47;;;0.00;99.90;;;;;;4992259;28;20517;-54
2022/12/19 06:46:51;;;;;;;34.20;19.43;;;-0.10;99.90;;;;;;4998656;28;20440;-54
2022/12/19 06:49:20;;;;;;;39.67;18.93;;;-0.10;1.00;;;;;;4996319;28;20226;-55
2022/12/19 06:51:46;;;;;;;38.80;18.97;;;-0.10;1.00;;;;;;4995863;28;20505;-55
2022/12/19 06:54:12;;;;;;;32.67;18.60;;;0.00;1.00;;;;;;5000624;28;20458;-54
2022/12/19 06:56:39;;;;;;;38.57;18.63;;;-0.10;1.00;;;;;;4990142;28;20229;-54
2022/12/19 06:59:10;;;;;;;36.63;19.83;;;0.00;1.00;;;;;;4998192;28;20498;-55
2022/12/19 07:01:52;;;;;;;29.83;15.07;;;0.00;1.00;;;;;;4997727;28;20450;-53
2022/12/19 07:04:33;;;;;;;37.30;17.70;;;0.00;1.00;;;;;;4998680;28;20469;-55
2022/12/19 07:06:59;;;;;;;34.80;17.57;;;0.10;1.00;;;;;;4991471;28;20978;-56
2022/12/19 07:09:26;;;;;;;37.10;17.27;;;0.10;1.00;;;;;;4993190;28;20476;-54
2022/12/19 07:11:51;;;;;;;38.60;18.77;;;0.10;1.00;;;;;;4997734;28;20521;-54
2022/12/19 07:14:17;;;;;;;31.60;17.97;;;0.20;1.00;;;;;;4998502;28;20940;-55
2022/12/19 07:16:45;;;;;;;29.17;16.40;;;0.10;1.00;;;;;;5002412;28;20208;-53
2022/12/19 07:19:11;;;;;;;38.23;18.73;;;0.10;1.00;;;;;;4998730;28;20453;-55
2022/12/19 07:21:37;;;;;;;39.83;19.50;;;0.20;1.00;;;;;;4994655;28;20898;-55
2022/12/19 07:24:04;;;;;;;33.17;17.83;;;0.20;1.00;;;;;;4993250;28;20447;-54
2022/12/19 07:26:30;;;;;;;38.50;19.60;;;0.20;1.00;;;;;;4997955;28;20506;-54
2022/12/19 07:28:57;;;;;;;34.57;18.00;;;0.20;1.00;;;;;;5008526;28;20458;-55
2022/12/19 07:31:22;;;;;;;40.17;17.60;;;0.30;1.00;;;;;;5000233;28;20469;-54
2022/12/19 07:33:48;;;;;;;35.60;18.73;;;0.30;1.00;;;;;;5000872;28;20542;-56
2022/12/19 07:36:14;;;;;;;42.37;22.23;;;0.30;1.00;;;;;;4997927;28;20217;-57
2022/12/19 07:38:39;;;;;;;36.50;19.77;;;0.30;1.00;;;;;;4991295;28;20194;-54
2022/12/19 07:41:05;;;;;;;32.40;16.60;;;0.30;1.00;;;;;;5001447;28;20670;-57
2022/12/19 07:43:30;;;;;;;38.10;18.60;;;0.50;1.00;;;;;;5009718;28;20395;-58
2022/12/19 07:45:56;;;;;;;45.60;20.70;;;0.50;1.00;;;;;;4995883;28;20672;-59
2022/12/19 07:48:22;;;;;;;34.93;19.17;;;0.60;1.00;;;;;;4978629;28;20232;-59
2022/12/19 07:50:48;;;;;;;34.77;18.47;;;0.70;1.00;;;;;;5008187;28;20203;-57
2022/12/19 07:53:14;;;;;;;33.97;18.07;;;0.90;1.00;;;;;;4999497;28;20454;-59
2022/12/19 07:55:40;;;;;;;35.53;18.60;;;0.90;1.00;;;;;;4994026;28;20499;-58
2022/12/19 07:58:06;;;;;;;33.03;17.67;;;0.80;1.00;;;;;;4997963;28;20450;-58
2022/12/19 08:00:32;;;;;;;36.93;19.10;;;0.70;1.00;;;;;;5002403;28;20549;-55
2022/12/19 08:02:58;;;;;;;36.87;18.17;;;0.60;1.00;;;;;;5004303;28;20526;-56
2022/12/19 08:05:24;;;;;;;32.20;16.30;;;0.70;1.00;;;;;;5003959;28;20187;-57
2022/12/19 08:07:52;;;;;;;32.00;18.47;;;0.80;1.00;;;;;;4996434;28;20793;-59
2022/12/19 08:10:18;;;;;;;35.20;18.70;;;0.70;1.00;;;;;;5000558;28;20190;-56
2022/12/19 08:12:45;;;;;;;37.87;19.83;;;0.70;1.00;;;;;;4997337;28;20454;-58
2022/12/19 08:15:10;;;;;;;35.07;18.70;;;0.80;1.00;;;;;;5000034;28;20467;-56
2022/12/19 08:17:37;;;;;;;36.67;19.70;;;0.90;1.00;;;;;;4997198;28;20460;-57
2022/12/19 08:20:04;;;;;;;38.07;17.90;;;0.90;1.00;;;;;;4996874;28;20274;-57
2022/12/19 08:22:30;;;;;;;30.77;17.17;;;1.00;1.00;;;;;;4995519;28;20934;-57
2022/12/19 08:24:56;;;;;;;31.30;16.60;;;0.90;1.00;;;;;;5003156;28;20502;-57
2022/12/19 08:27:22;;;;;;;33.53;17.47;;;1.00;1.00;;;;;;4998769;28;20475;-57
2022/12/19 08:29:48;;;;;;;32.57;17.60;;;0.90;1.00;;;;;;5002132;28;20580;-57
2022/12/19 08:32:15;;;;;;;33.77;17.47;;;1.00;1.00;;;;;;5004895;28;20456;-57
2022/12/19 08:34:40;;;;;;;35.20;17.77;;;1.10;1.00;;;;;;5001518;28;20504;-58
2022/12/19 08:37:09;;;;;;;34.90;19.57;;;1.00;1.00;;;;;;4992217;28;20457;-58
2022/12/19 08:39:35;;;;;;;39.50;18.60;;;0.70;1.00;;;;;;4995003;28;20612;-56
2022/12/19 08:42:01;;;;;;;31.83;17.67;;;1.00;1.00;;;;;;4990141;28;20471;-58
2022/12/19 08:44:27;;;;;;;38.40;18.33;;;1.10;1.00;;;;;;4997847;28;20924;-57
2022/12/19 08:46:52;;;;;;;35.03;18.40;;;1.20;1.00;;;;;;5005870;28;20442;-57
2022/12/19 08:49:18;;;;;;;39.60;20.10;;;1.30;1.00;;;;;;5004568;28;20708;-56
2022/12/19 08:51:45;;;;;;;36.60;18.40;;;1.30;1.00;;;;;;4995805;28;20206;-57
2022/12/19 08:54:11;;;;;;;33.50;18.17;;;1.30;1.00;;;;;;5006132;28;20446;-57
2022/12/19 08:56:37;;;;;;;31.90;17.40;;;1.40;1.00;;;;;;4999232;28;20466;-57
2022/12/19 08:59:03;;;;;;;34.50;18.97;;;1.40;1.00;;;;;;4998234;28;20193;-58
2022/12/19 09:01:29;;;;;;;40.60;19.07;;;1.50;1.00;;;;;;5000913;28;20441;-59
2022/12/19 09:03:58;;;;;;;30.97;15.60;;;1.60;1.00;;;;;;5002961;28;20443;-57
2022/12/19 09:06:24;;;;;;;30.20;17.93;;;1.60;1.00;;;;;;5002556;28;20996;-56
2022/12/19 09:08:50;;;;;;;36.63;19.37;;;1.60;1.00;;;;;;4995974;28;20814;-59
2022/12/19 09:11:18;;;;;;;35.20;18.37;;;1.70;1.00;;;;;;4995327;28;20442;-57
2022/12/19 09:13:45;;;;;;;36.90;19.03;;;1.70;1.00;;;;;;5001049;28;20638;-58
2022/12/19 09:16:13;;;;;;;36.27;19.10;;;1.80;1.00;;;;;;4996434;28;20478;-58
2022/12/19 09:18:41;;;;;;;29.50;15.30;;;1.90;1.00;;;;;;5001109;28;20779;-56
2022/12/19 09:21:07;;;;;;;39.67;18.93;;;1.80;1.00;;;;;;4999149;28;20578;-57
2022/12/19 09:23:33;;;;;;;38.60;20.67;;;1.80;1.00;;;;;;5007550;28;20527;-57
2022/12/19 09:26:08;;;;;;;35.20;18.43;;;1.80;1.00;;;;;;4998516;28;20195;-57
2022/12/19 09:28:35;;;;;;;34.57;19.73;;;1.80;1.00;;;;;;4991857;28;20336;-56
2022/12/19 09:31:04;;;;;;;35.27;19.50;;;1.80;1.00;;;;;;4990918;28;20542;-57
2022/12/19 09:33:31;;;;;;;31.20;19.67;;;1.90;1.00;;;;;;5003932;28;20465;-59
2022/12/19 09:35:57;;;;;;;39.53;20.00;;;2.00;1.00;;;;;;5008606;28;20507;-57
2022/12/19 09:38:26;;;;;;;32.47;17.70;;;2.00;1.00;;;;;;4974263;28;20526;-58
2022/12/19 09:41:08;;;;;;;40.10;19.50;;;2.00;1.00;;;;;;5001619;28;20534;-58
2022/12/19 09:43:46;;;;;;;33.10;18.27;;;2.00;1.00;;;;;;4997321;28;20446;-58
2022/12/19 09:46:23;;;;;;;38.93;22.40;;;2.00;1.00;;;;;;5013462;28;20469;-58
2022/12/19 09:48:53;;;;;;;44.90;20.97;;;2.10;1.00;;;;;;5011573;28;20616;-59
2022/12/19 09:51:39;;;;;;;33.67;18.07;;;2.10;1.00;;;;;;5013272;28;20805;-59
2022/12/19 09:54:10;;;;;;;38.27;21.47;;;2.10;1.00;;;;;;4994567;28;20466;-58
2022/12/19 09:56:39;;;;;;;34.87;20.60;;;2.00;1.00;;;;;;5006904;28;20466;-56
2022/12/19 09:59:15;;;;;;;36.63;20.73;;;2.00;1.00;;;;;;4993313;28;20940;-57
2022/12/19 10:02:31;;;;;;;37.57;20.27;;;2.00;1.00;;;;;;5003093;28;20520;-58
2022/12/19 10:05:16;;;;;;;33.63;18.27;;;2.10;1.00;;;;;;5007510;28;20442;-55
2022/12/19 10:07:43;;;;;;;37.30;20.43;;;2.10;1.00;;;;;;5001887;28;20477;-57
2022/12/19 10:10:15;;;;;;;43.00;21.20;;;2.20;1.00;;;;;;5008446;28;20446;-58
2022/12/19 10:12:59;;;;;;;37.80;19.80;;;2.30;1.00;;;;;;4997127;28;20445;-57
2022/12/19 10:15:37;;;;;;;38.47;21.67;;;2.30;1.00;;;;;;5012740;28;20458;-56
2022/12/19 10:18:42;;;;;;;37.27;21.20;;;2.40;1.00;;;;;;5009189;28;20435;-58
2022/12/19 10:21:29;;;;;;;30.30;18.43;;;2.40;1.00;;;;;;4979591;28;20962;-59
2022/12/19 10:23:55;;;;;;;34.30;18.60;;;2.50;1.00;;;;;;5012692;28;20423;-59
2022/12/19 10:26:35;;;;;;;33.77;21.97;;;2.50;1.00;;;;;;5012745;28;20430;-57
2022/12/19 10:29:21;;;;;;;36.07;18.53;;;2.40;1.00;;;;;;5004496;28;20255;-56
2022/12/19 10:32:10;;;;;;;40.30;20.50;;;2.30;1.00;;;;;;5004925;28;20431;-57
2022/12/19 10:34:40;;;;;;;35.67;20.07;;;2.40;1.00;;;;;;5004766;28;21116;-57
2022/12/19 10:37:21;;;;;;;34.50;20.40;;;2.50;1.00;;;;;;5007672;28;20544;-57
2022/12/19 10:40:12;;;;;;;36.23;20.10;;;2.60;1.00;;;;;;4999777;28;20438;-58
2022/12/19 10:42:49;;;;;;;33.83;19.43;;;2.80;1.00;;;;;;5004069;28;20447;-58
2022/12/19 10:45:19;;;;;;;37.87;19.93;;;2.80;1.00;;;;;;5009587;28;20814;-55
2022/12/19 10:47:48;;;;;;;33.97;18.70;;;2.90;1.00;;;;;;5008545;28;20499;-56
2022/12/19 10:50:26;;;;;;;35.60;19.80;;;3.10;1.00;;;;;;4996543;28;20493;-56
2022/12/19 10:52:53;;;;;;;30.20;18.70;;;3.20;1.00;;;;;;5000673;28;20446;-58
2022/12/19 10:55:37;;;;;;;36.50;18.20;;;3.30;1.00;;;;;;4986932;28;21041;-59
2022/12/19 10:58:21;;;;;;;36.23;19.93;;;3.30;1.00;;;;;;5002651;28;20526;-56
2022/12/19 11:01:15;;;;;;;33.43;18.27;;;3.20;1.00;;;;;;5013947;28;20434;-58
2022/12/19 11:03:44;;;;;;;32.90;19.47;;;3.30;1.00;;;;;;5001151;28;20922;-56
2022/12/19 11:06:47;;;;;;;33.50;19.00;;;3.30;1.00;;;;;;5016270;28;20435;-57
2022/12/19 11:09:17;;;;;;;34.73;17.90;;;3.30;1.00;;;;;;4979294;28;20435;-57
2022/12/19 11:11:42;;;;;;;34.90;19.47;;;3.30;1.00;;;;;;5015872;28;20762;-56
2022/12/19 11:14:28;;;;;;;32.40;17.43;;;5.30;1.00;;;;;;5008099;28;20485;-57
2022/12/19 11:16:54;;;;;;;31.67;17.97;;;3.10;1.00;;;;;;4997725;28;20215;-57
2022/12/19 11:19:26;;;;;;;31.90;19.07;;;3.10;1.00;;;;;;4984782;28;20434;-57
2022/12/19 11:21:52;;;;;;;32.27;18.97;;;3.00;1.00;;;;;;5004071;28;20195;-58
2022/12/19 11:24:24;;;;;;;31.93;18.27;;;3.10;1.00;;;;;;5011881;28;21007;-55
2022/12/19 11:26:52;;;;;;;30.10;16.50;;;3.20;1.00;;;;;;5001711;28;20508;-57
2022/12/19 11:29:26;;;;;;;31.87;17.43;;;3.30;1.00;;;;;;5002645;28;20446;-56
2022/12/19 11:32:00;;;;;;;32.03;18.40;;;3.20;1.00;;;;;;5002697;28;20466;-56
2022/12/19 11:34:34;;;;;;;31.80;17.80;;;3.20;1.00;;;;;;5008408;28;20443;-56
2022/12/19 11:37:18;;;;;;;33.47;18.93;;;3.30;1.00;;;;;;4993616;28;20450;-56
2022/12/19 11:40:04;;;;;;;27.53;16.77;;;3.40;1.00;;;;;;4991364;28;20450;-57
2022/12/19 11:42:41;;;;;;;33.23;19.13;;;3.30;1.00;;;;;;5005483;28;20439;-56
2022/12/19 11:45:39;;;;;;;38.70;19.27;;;3.30;1.00;;;;;;4995201;28;20431;-57
2022/12/19 11:48:30;;;;;;;33.23;20.00;;;3.50;1.00;;;;;;5002534;28;21022;-57
2022/12/19 11:51:21;;;;;;;35.43;21.30;;;3.50;1.00;;;;;;5012505;28;20434;-58
2022/12/19 11:53:52;;;;;;;40.30;19.17;;;3.40;1.00;;;;;;4991999;28;20971;-56
2022/12/19 11:56:21;;;;;;;33.37;17.73;;;3.50;1.00;;;;;;5015181;28;20459;-56
2022/12/19 11:58:58;;;;;;;34.90;19.70;;;3.30;1.00;;;;;;4982804;28;20466;-55
2022/12/19 12:01:54;;;;;;;33.03;19.17;;;3.30;1.00;;;;;;4995192;28;20751;-55
2022/12/19 12:04:26;;;;;;;34.60;19.00;;;3.20;1.00;;;;;;4999404;28;20431;-58
2022/12/19 12:06:54;;;;;;;39.30;20.03;;;3.20;1.00;;;;;;4997665;28;20493;-58
2022/12/19 12:09:35;;;;;;;36.23;19.93;;;3.10;1.00;;;;;;4999189;28;20474;-56
2022/12/19 12:12:23;;;;;;;40.20;20.20;;;3.10;1.00;;;;;;4995263;28;20531;-55
2022/12/19 12:15:26;;;;;;;40.50;20.87;;;3.10;1.00;;;;;;5002492;28;20765;-55
2022/12/19 12:18:07;;;;;;;38.00;20.40;;;3.10;1.00;;;;;;4997767;28;20517;-57
2022/12/19 12:21:15;;;;;;;39.17;21.93;;;3.10;1.00;;;;;;4995412;28;20526;-55
2022/12/19 12:23:59;;;;;;;39.67;21.43;;;3.10;1.00;;;;;;4998989;28;20540;-58
2022/12/19 12:26:31;;;;;;;35.57;20.27;;;3.10;1.00;;;;;;5012822;28;20457;-56
2022/12/19 12:29:19;;;;;;;38.10;19.93;;;3.10;1.00;;;;;;5004941;28;20510;-57
2022/12/19 12:32:03;;;;;;;37.40;20.23;;;3.10;1.00;;;;;;4986489;28;20477;-57
2022/12/19 12:35:08;;;;;;;37.30;19.87;;;3.30;1.00;;;;;;4994890;28;20955;-58
2022/12/19 12:38:18;;;;;;;38.80;20.07;;;3.20;1.00;;;;;;4999088;28;20646;-57
2022/12/19 12:40:49;;;;;;;33.40;18.33;;;3.20;1.00;;;;;;4939217;28;20419;-57
2022/12/19 12:43:30;;;;;;;32.73;19.40;;;3.20;1.00;;;;;;4984270;28;20436;-57
2022/12/19 12:45:56;;;;;;;37.73;17.90;;;3.10;1.00;;;;;;5001858;28;20446;-57
2022/12/19 12:48:40;;;;;;;32.37;18.83;;;3.20;1.00;;;;;;5014387;28;20932;-57
2022/12/19 12:51:07;;;;;;;30.57;19.10;;;3.20;1.00;;;;;;5014227;28;20191;-57
2022/12/19 12:53:37;;;;;;;36.00;20.40;;;3.20;1.00;;;;;;5014189;28;20576;-58
2022/12/19 12:56:05;;;;;;;29.97;18.27;;;3.10;1.00;;;;;;5000469;28;20816;-59
2022/12/19 12:58:50;;;;;;;33.33;19.67;;;3.10;1.00;;;;;;4957816;28;20484;-56
2022/12/19 13:01:28;;;;;;;32.93;19.97;;;3.20;1.00;;;;;;4993187;28;20443;-57
2022/12/19 13:04:18;;;;;;;34.53;19.67;;;3.10;1.00;;;;;;5002126;28;20481;-58
2022/12/19 13:06:49;;;;;;;35.27;20.87;;;3.10;1.00;;;;;;5003850;28;20952;-57
2022/12/19 13:09:28;;;;;;;34.10;19.07;;;3.00;1.00;;;;;;5004811;28;20489;-58